Weather History for Caro, MI

Change the Weather History Date:

Tuesday, October 9, 2012

  Actual Average (KMBS) Record (KMBS)
Temperature  
Mean Temperature 50 °F 52 °F  
Max Temperature 62 °F 62 °F 81 °F (2011)
Min Temperature 37 °F 42 °F 36 °F (2000)
Degree Days  
Heating Degree Days 16    
Month to date heating degree days  
Since 1 July heating degree days  
Cooling Degree Days 0    
Month to date cooling degree days  
Year to date cooling degree days  
Moisture  
Dew Point 31 °F    
Average Humidity 47    
Maximum Humidity 69    
Minimum Humidity 33    
Precipitation  
Precipitation 0.00 in 0.09 in 0.17 in (1997)
Month to date precipitation 0.86  
Year to date precipitation 25.21  
Snow  
Snow 0.00 in - - ()
Month to date snowfall  
Since 1 July snowfall  
Since 1 September snowfall  
Snow Depth -    
Sea Level Pressure  
Sea Level Pressure 29.94 in    
Wind  
Wind Speed 9 mph (South)    
Max Wind Speed 23 mph    
Max Gust Speed 29 mph    
Visibility 10 miles    
Events      
T = Trace of Precipitation, MM = Missing Value Source: NWS Daily Summary

Daily Weather History Graph

Daily Weather History Graph

Search for Another Location

Airport:

Trip Planner

Search our weather history database for the weather conditions in past years. The results will help you decide how hot, cold, wet, or windy it might be!

Date:

Astronomy

Oct. 09, 2012 Rise Set
Actual Time 7:41 AM EDT 6:59 PM EDT
Civil Twilight 7:12 AM EDT 7:28 PM EDT
Nautical Twilight 6:39 AM EDT 8:01 PM EDT
Astronomical Twilight 6:06 AM EDT 8:34 PM EDT
Moon 1:06 AM EDT (10/9) 3:36 PM EDT (10/9)
Length of Visible Light 12h 16m
Length of Day
11h 18m
Last Quarter, 37% of the Moon is Illuminated
Oct 9
Last Quarter
Oct 15
New
Oct 21
First Quarter
Oct 29
Full
Nov 6
Last Quarter

Hourly Weather History & Observations

Time (EDT) Temp. Windchill Dew Point Humidity Pressure Visibility Wind Dir Wind Speed Gust Speed Precip Events Conditions
12:34 AM 37.4 °F - 28.0 °F 69% 30.08 in 10.0 mi Calm Calm - N/A   Clear
12:55 AM 38.3 °F 34.8 °F 28.2 °F 67% 30.07 in 10.0 mi SSE 4.6 mph - N/A   Clear
1:14 AM 39.2 °F 37.0 °F 28.2 °F 65% 30.07 in 10.0 mi SSE 3.5 mph - N/A   Clear
1:35 AM 39.6 °F 37.4 °F 28.4 °F 64% 30.07 in 10.0 mi SSE 3.5 mph - N/A   Clear
1:55 AM 39.4 °F 37.2 °F 28.4 °F 65% 30.07 in 10.0 mi SSE 3.5 mph - N/A   Clear
2:14 AM 39.0 °F 36.8 °F 28.4 °F 66% 30.07 in 10.0 mi SSE 3.5 mph - N/A   Clear
2:55 AM 39.9 °F 36.7 °F 29.1 °F 65% 30.06 in 10.0 mi SE 4.6 mph - N/A   Clear
3:15 AM 39.7 °F 36.5 °F 28.6 °F 64% 30.05 in 10.0 mi SSE 4.6 mph - N/A   Clear
3:54 AM 41.0 °F 37.1 °F 28.4 °F 61% 30.04 in 10.0 mi South 5.8 mph - N/A   Clear
4:15 AM 43.7 °F 39.1 °F 28.4 °F 55% 30.04 in 10.0 mi South 8.1 mph - N/A   Scattered Clouds
4:35 AM 44.6 °F 40.7 °F 28.0 °F 52% 30.04 in 10.0 mi SSW 6.9 mph - N/A   Scattered Clouds
4:54 AM 44.1 °F 39.5 °F 28.2 °F 54% 30.04 in 10.0 mi SSW 8.1 mph - N/A   Clear
5:15 AM 43.3 °F 39.2 °F 28.2 °F 55% 30.04 in 10.0 mi South 6.9 mph - N/A   Clear
5:34 AM 42.8 °F 38.0 °F 28.4 °F 57% 30.04 in 10.0 mi South 8.1 mph - N/A   Clear
5:55 AM 42.8 °F 38.0 °F 28.4 °F 57% 30.04 in 10.0 mi South 8.1 mph - N/A   Clear
6:15 AM 43.7 °F 38.6 °F 28.6 °F 55% 30.03 in 10.0 mi South 9.2 mph - N/A   Clear
6:34 AM 44.1 °F 39.5 °F 28.8 °F 55% 30.03 in 10.0 mi South 8.1 mph - N/A   Clear
6:55 AM 44.6 °F 39.7 °F 28.8 °F 54% 30.04 in 10.0 mi SSW 9.2 mph - N/A   Clear
7:15 AM 44.8 °F 39.9 °F 29.1 °F 54% 30.03 in 10.0 mi South 9.2 mph - N/A   Clear
7:34 AM 44.8 °F 39.9 °F 29.3 °F 55% 30.03 in 10.0 mi South 9.2 mph - N/A   Clear
7:55 AM 44.8 °F 39.0 °F 29.1 °F 54% 30.02 in 10.0 mi South 11.5 mph 16.1 mph N/A   Clear
8:15 AM 45.0 °F 40.1 °F 29.3 °F 54% 30.02 in 10.0 mi South 9.2 mph 19.6 mph N/A   Clear
8:34 AM 46.2 °F 40.8 °F 29.7 °F 53% 30.02 in 10.0 mi South 11.5 mph 18.4 mph N/A   Clear
8:55 AM 46.9 °F - 30.0 °F 52% 30.02 in 10.0 mi South 12.7 mph 18.4 mph N/A   Clear
9:15 AM 48.4 °F - 30.2 °F 49% 30.02 in 10.0 mi SSW 12.7 mph 20.7 mph N/A   Clear
9:34 AM 49.5 °F - 30.7 °F 49% 30.02 in 10.0 mi SSW 16.1 mph 21.9 mph N/A   Clear
9:55 AM 50.0 °F - 31.1 °F 48% 30.02 in 10.0 mi SSW 12.7 mph 18.4 mph N/A   Clear
10:14 AM 51.3 °F - 31.6 °F 47% 30.01 in 10.0 mi South 16.1 mph - N/A   Clear
10:35 AM 52.7 °F - 32.0 °F 45% 30.01 in 10.0 mi South 13.8 mph 25.3 mph N/A   Clear
10:55 AM 54.3 °F - 32.0 °F 43% 30.00 in 10.0 mi SSW 17.3 mph 21.9 mph N/A   Clear
11:14 AM 55.4 °F - 32.2 °F 41% 29.99 in 10.0 mi South 18.4 mph 24.2 mph N/A   Clear
11:35 AM 56.7 °F - 32.4 °F 40% 29.98 in 10.0 mi South 15.0 mph 23.0 mph N/A   Clear
11:55 AM 57.7 °F - 32.4 °F 38% 29.97 in 10.0 mi SSW 15.0 mph 24.2 mph N/A   Scattered Clouds
12:14 PM 58.6 °F - 32.4 °F 37% 29.97 in 10.0 mi South 19.6 mph 27.6 mph N/A   Clear
12:35 PM 59.7 °F - 32.4 °F 36% 29.95 in 10.0 mi South 12.7 mph 27.6 mph N/A   Clear
12:55 PM 60.1 °F - 32.2 °F 35% 29.95 in 10.0 mi SSW 23.0 mph 28.8 mph N/A   Clear
1:15 PM 61.2 °F - 32.4 °F 34% 29.94 in 10.0 mi SSW 16.1 mph 26.5 mph N/A   Clear
1:35 PM 61.5 °F - 32.7 °F 34% 29.92 in 10.0 mi SSW 18.4 mph 24.2 mph N/A   Clear
1:54 PM 62.1 °F - 32.7 °F 33% 29.92 in 10.0 mi SSW 15.0 mph 21.9 mph N/A   Clear
2:15 PM 62.1 °F - 32.5 °F 33% 29.90 in 10.0 mi SSW 19.6 mph 27.6 mph N/A   Scattered Clouds
2:34 PM 61.7 °F - 32.2 °F 33% 29.90 in 10.0 mi South 23.0 mph 27.6 mph N/A   Scattered Clouds
2:55 PM 62.2 °F - 32.4 °F 33% 29.89 in 10.0 mi South 18.4 mph 25.3 mph N/A   Scattered Clouds
3:15 PM 61.5 °F - 32.7 °F 34% 29.88 in 10.0 mi South 15.0 mph 25.3 mph N/A   Clear
3:34 PM 61.7 °F - 32.7 °F 34% 29.88 in 10.0 mi South 16.1 mph 27.6 mph N/A   Clear
3:55 PM 61.7 °F - 33.3 °F 34% 29.87 in 10.0 mi South 15.0 mph 25.3 mph N/A   Clear
4:15 PM 61.3 °F - 32.9 °F 34% 29.86 in 10.0 mi South 17.3 mph 28.8 mph N/A   Clear
4:34 PM 61.2 °F - 33.1 °F 35% 29.85 in 10.0 mi South 15.0 mph 25.3 mph N/A   Clear
4:55 PM 60.8 °F - 32.7 °F 35% 29.85 in 10.0 mi SSW 18.4 mph 25.3 mph N/A   Clear
5:15 PM 60.8 °F - 32.9 °F 35% 29.85 in 10.0 mi South 17.3 mph 21.9 mph N/A   Clear
5:34 PM 60.3 °F - 33.1 °F 36% 29.85 in 10.0 mi SSW 16.1 mph 20.7 mph N/A   Clear
5:55 PM 60.3 °F - 32.7 °F 35% 29.85 in 10.0 mi SSW 17.3 mph 23.0 mph N/A   Clear
6:14 PM 59.9 °F - 33.1 °F 36% 29.85 in 10.0 mi South 11.5 mph - N/A   Clear
6:35 PM 59.0 °F - 33.8 °F 39% 29.84 in 10.0 mi South 10.4 mph - N/A   Clear
6:54 PM 58.1 °F - 33.8 °F 40% 29.85 in 10.0 mi South 10.4 mph 18.4 mph N/A   Clear
7:15 PM 57.2 °F - 34.0 °F 42% 29.84 in 10.0 mi South 9.2 mph - N/A   Clear
7:35 PM 55.8 °F - 34.3 °F 44% 29.84 in 10.0 mi South 8.1 mph - N/A   Clear
7:54 PM 54.9 °F - 34.7 °F 47% 29.84 in 10.0 mi South 8.1 mph - N/A   Clear
8:15 PM 55.4 °F - 34.5 °F 45% 29.84 in 10.0 mi South 9.2 mph - N/A   Clear
8:35 PM 55.4 °F - 34.3 °F 45% 29.83 in 10.0 mi South 10.4 mph - N/A   Clear
8:54 PM 55.0 °F - 34.3 °F 46% 29.83 in 10.0 mi South 10.4 mph - N/A   Clear
9:15 PM 55.2 °F - 34.0 °F 45% 29.83 in 10.0 mi South 10.4 mph 16.1 mph N/A   Clear
9:35 PM 55.4 °F - 33.8 °F 44% 29.83 in 10.0 mi South 12.7 mph 19.6 mph N/A   Clear
9:54 PM 55.4 °F - 33.8 °F 44% 29.82 in 10.0 mi South 11.5 mph 16.1 mph N/A   Scattered Clouds
10:15 PM 55.0 °F - 33.6 °F 44% 29.81 in 10.0 mi South 12.7 mph 17.3 mph N/A   Clear
10:34 PM 54.9 °F - 33.8 °F 45% 29.80 in 10.0 mi South 11.5 mph 17.3 mph N/A   Clear
10:55 PM 54.9 °F - 33.8 °F 45% 29.79 in 10.0 mi South 10.4 mph 17.3 mph N/A   Scattered Clouds
11:15 PM 54.7 °F - 34.0 °F 46% 29.78 in 10.0 mi South 11.5 mph 18.4 mph N/A   Scattered Clouds
11:34 PM 54.9 °F - 34.0 °F 45% 29.78 in 10.0 mi South 15.0 mph 20.7 mph N/A   Clear
11:55 PM 54.9 °F - 34.3 °F 46% 29.77 in 10.0 mi South 12.7 mph 18.4 mph N/A   Scattered Clouds